LOWS

Salzburg Airport

Salzburg, Austria
METAR LOWS 192220Z AUTO 15004KT 9999 NSC 16/14 Q1023
Observed Flight Rules
Sep-19 @ 22:20 UTC (13 minutes ago) Visual Flight Rules
Wind Visibility Clouds
150° at 4 knots 10,000+ meters
  • Clear skies
Temperatures Readings
Current 16°C / 61°F
Dewpoint 14°C / 57°F
Humidity 88%
Altimeter 30.21" Hg
Pressure 1023 hPa
Elevation 430
METAR LOWS 192220Z AUTO 15004KT 9999 NSC 16/14 Q1023
Observed Flight Rules
Sep-19 @ 22:20 UTC
(13 minutes ago)
VFR
Wind Visibility
150° at 4 knots 10,000+ meters
Clouds
  • Clear skies
Temperature Dewpoint
16°C / 61°F 14°C / 57°F
Humidity Altimeter Pressure
88% 30.21" Hg 1023 hPa